Time;durP1;ratioP1;P1;durP2;ratioP2;P2;SDS_P1;SDS_P2;PMS_P1;PMS_P2;Temp;Humidity;BMP_temperature;BMP_pressure;BME280_temperature;BME280_humidity;BME280_pressure;Samples;Min_cycle;Max_cycle;Signal;HPM_P1;HPM_P2
2021/08/13 00:05:04;;;;;;;10.48;5.18;;;28.90;24.90;;;;;;21054281;27;80531;-71
2021/08/13 00:15:06;;;;;;;16.52;5.03;;;28.60;25.30;;;;;;21056158;27;80901;-72
2021/08/13 00:25:09;;;;;;;13.57;5.75;;;28.50;25.00;;;;;;21054125;27;80746;-70
2021/08/13 00:35:11;;;;;;;11.00;5.20;;;28.30;25.30;;;;;;21055053;27;80097;-71
2021/08/13 00:45:13;;;;;;;12.27;5.45;;;28.10;25.40;;;;;;21053072;27;80789;-75
2021/08/13 00:55:14;;;;;;;10.20;4.93;;;28.00;26.10;;;;;;21052901;27;81103;-73
2021/08/13 01:05:16;;;;;;;19.15;6.28;;;27.90;26.90;;;;;;21051655;27;80753;-73
2021/08/13 01:15:19;;;;;;;14.73;5.03;;;27.90;27.20;;;;;;21073597;27;81826;-72
2021/08/13 01:25:25;;;;;;;12.20;4.55;;;27.70;27.90;;;;;;21080876;27;81030;-72
2021/08/13 01:35:31;;;;;;;8.68;5.70;;;27.60;27.70;;;;;;21079630;27;80067;-72
2021/08/13 01:45:34;;;;;;;10.60;4.68;;;27.30;29.10;;;;;;21079822;27;81063;-71
2021/08/13 01:55:37;;;;;;;14.05;5.45;;;27.20;28.90;;;;;;21077113;27;80041;-72
2021/08/13 02:05:42;;;;;;;13.80;5.28;;;27.00;30.20;;;;;;21076675;27;80774;-71
2021/08/13 02:16:04;;;;;;;10.30;4.97;;;26.80;29.30;;;;;;21077646;27;80206;-70
2021/08/13 02:26:05;;;;;;;9.30;4.90;;;26.60;29.00;;;;;;21064402;27;80849;-69
2021/08/13 02:36:15;;;;;;;9.75;4.80;;;26.40;29.70;;;;;;21060895;27;81022;-70
2021/08/13 02:46:20;;;;;;;15.43;5.23;;;26.20;29.50;;;;;;21059663;27;80537;-71
2021/08/13 02:56:26;;;;;;;10.05;4.28;;;26.00;29.90;;;;;;21060152;27;80922;-72
2021/08/13 03:06:32;;;;;;;11.57;5.50;;;25.90;29.50;;;;;;21063728;27;80040;-77
2021/08/13 03:16:34;;;;;;;9.05;4.85;;;25.80;30.00;;;;;;21062461;27;79970;-71
2021/08/13 03:26:36;;;;;;;13.45;5.07;;;25.60;30.00;;;;;;21059228;27;79911;-71
2021/08/13 03:36:39;;;;;;;15.23;5.10;;;25.50;30.70;;;;;;21057089;27;80920;-71
2021/08/13 03:46:43;;;;;;;9.10;4.25;;;25.10;34.60;;;;;;21057001;27;80701;-69
2021/08/13 03:56:47;;;;;;;9.65;3.92;;;24.90;32.90;;;;;;21056103;27;79900;-69
2021/08/13 04:06:51;;;;;;;11.88;5.00;;;24.70;32.60;;;;;;21056948;27;80968;-70
2021/08/13 04:16:54;;;;;;;21.02;5.03;;;24.60;33.50;;;;;;21055577;27;80718;-73
2021/08/13 04:26:56;;;;;;;20.83;4.55;;;24.60;33.20;;;;;;21054184;27;81149;-71
2021/08/13 04:36:59;;;;;;;16.58;5.28;;;24.60;33.30;;;;;;21053512;27;80713;-70
2021/08/13 04:47:02;;;;;;;7.82;4.63;;;24.60;34.10;;;;;;21053209;27;80974;-71
2021/08/13 04:57:09;;;;;;;15.57;5.22;;;24.60;34.50;;;;;;21052662;27;80569;-74
2021/08/13 05:07:11;;;;;;;15.13;3.88;;;24.60;33.90;;;;;;21051367;27;81838;-73
2021/08/13 05:17:12;;;;;;;20.33;4.88;;;24.50;33.90;;;;;;21050753;27;80041;-71
2021/08/13 05:27:16;;;;;;;18.83;5.60;;;24.50;33.60;;;;;;21053749;27;80981;-70
2021/08/13 05:37:19;;;;;;;15.52;5.13;;;24.40;35.10;;;;;;21051484;27;81046;-72
2021/08/13 05:47:20;;;;;;;18.58;4.93;;;24.40;35.60;;;;;;21049621;27;80793;-73
2021/08/13 05:57:22;;;;;;;16.23;5.13;;;24.50;34.80;;;;;;21054131;27;80303;-70
2021/08/13 06:07:24;;;;;;;19.63;4.53;;;24.60;35.40;;;;;;21062917;27;80643;-72
2021/08/13 06:17:26;;;;;;;19.20;5.20;;;24.80;34.60;;;;;;21064212;27;80624;-74
2021/08/13 06:27:27;;;;;;;15.77;5.10;;;25.00;34.60;;;;;;21065526;27;80932;-76
2021/08/13 06:37:29;;;;;;;16.23;5.38;;;25.20;35.70;;;;;;21077696;27;81048;-72
2021/08/13 06:47:30;;;;;;;16.90;4.90;;;25.40;34.90;;;;;;21061674;27;80717;-73
2021/08/13 06:57:33;;;;;;;20.15;5.72;;;25.60;34.30;;;;;;21060196;27;80770;-77
2021/08/13 07:07:34;;;;;;;22.73;6.20;;;25.90;34.10;;;;;;21058425;27;80975;-72
2021/08/13 07:17:39;;;;;;;21.90;5.80;;;26.20;35.40;;;;;;21058727;27;80925;-71
2021/08/13 07:27:40;;;;;;;15.80;4.78;;;26.40;33.00;;;;;;21057740;27;81627;-70
2021/08/13 07:37:42;;;;;;;19.23;4.45;;;26.80;32.00;;;;;;21058450;27;80262;-69
2021/08/13 07:47:43;;;;;;;22.10;5.05;;;27.30;31.80;;;;;;21057858;27;81914;-69
2021/08/13 07:57:46;;;;;;;18.52;4.75;;;27.70;31.40;;;;;;21057190;27;80966;-72
2021/08/13 08:07:47;;;;;;;26.88;5.38;;;28.20;30.40;;;;;;21058166;27;80088;-66
2021/08/13 08:17:50;;;;;;;17.63;5.40;;;28.70;29.70;;;;;;21054452;27;80614;-64
2021/08/13 08:27:53;;;;;;;15.63;4.78;;;29.20;28.50;;;;;;21055043;27;81179;-68
2021/08/13 08:37:58;;;;;;;13.25;4.15;;;29.60;27.60;;;;;;21054487;27;80160;-66
2021/08/13 08:48:06;;;;;;;13.75;4.43;;;30.10;27.50;;;;;;21052447;27;80617;-65
2021/08/13 08:58:09;;;;;;;16.92;5.18;;;30.50;27.00;;;;;;21051614;27;80684;-67
2021/08/13 09:08:10;;;;;;;12.95;4.53;;;31.00;26.80;;;;;;21051148;27;81285;-65
2021/08/13 09:18:16;;;;;;;14.13;4.97;;;31.30;25.80;;;;;;21050891;27;81122;-65
2021/08/13 09:28:36;;;;;;;16.50;4.43;;;31.80;25.90;;;;;;21050869;27;81769;-65
2021/08/13 09:38:38;;;;;;;12.10;4.87;;;32.30;25.20;;;;;;21065786;27;81219;-67
2021/08/13 09:48:41;;;;;;;18.23;4.50;;;32.70;25.40;;;;;;21066364;27;80554;-64
2021/08/13 09:58:43;;;;;;;23.88;4.82;;;33.20;24.40;;;;;;21064676;27;81656;-64
2021/08/13 10:08:45;;;;;;;13.32;3.97;;;34.00;23.70;;;;;;21063044;27;81074;-65
2021/08/13 10:18:55;;;;;;;13.30;4.57;;;34.80;24.10;;;;;;21064585;27;81897;-65
2021/08/13 10:28:57;;;;;;;14.57;4.90;;;35.80;22.40;;;;;;21062788;27;81087;-65
2021/08/13 10:38:59;;;;;;;18.08;4.88;;;37.20;20.90;;;;;;21063746;27;80954;-65
2021/08/13 10:49:01;;;;;;;23.35;4.85;;;38.40;19.90;;;;;;21060877;27;80443;-65
2021/08/13 10:59:02;;;;;;;16.30;5.47;;;40.10;18.20;;;;;;21061268;27;80073;-65
2021/08/13 11:09:07;;;;;;;19.13;4.22;;;42.00;17.90;;;;;;21060459;27;81487;-65
2021/08/13 11:19:10;;;;;;;19.75;4.43;;;43.90;16.50;;;;;;21059696;27;81912;-66
2021/08/13 11:29:28;;;;;;;25.63;5.50;;;46.60;14.50;;;;;;21058096;27;80640;-70
2021/08/13 11:39:39;;;;;;;20.38;5.53;;;49.10;13.70;;;;;;21057242;27;80786;-66
2021/08/13 11:49:43;;;;;;;19.63;4.82;;;50.70;13.20;;;;;;21057286;27;81137;-65
2021/08/13 11:59:47;;;;;;;25.77;5.22;;;52.30;12.80;;;;;;21056225;27;82102;-66
2021/08/13 12:09:48;;;;;;;18.15;5.32;;;54.10;12.00;;;;;;21056862;27;81671;-65
2021/08/13 12:19:54;;;;;;;23.73;5.63;;;55.10;12.10;;;;;;21055277;27;80724;-68
2021/08/13 12:29:56;;;;;;;19.13;6.10;;;55.90;11.60;;;;;;21055378;27;81056;-63
2021/08/13 12:40:00;;;;;;;27.27;7.20;;;55.00;11.90;;;;;;21054924;27;80042;-67
2021/08/13 12:50:03;;;;;;;23.25;6.43;;;55.40;11.60;;;;;;21053323;27;80600;-65
2021/08/13 13:00:10;;;;;;;22.35;6.32;;;53.90;12.00;;;;;;21051892;27;81292;-66
2021/08/13 13:10:34;;;;;;;20.75;6.93;;;55.90;11.30;;;;;;21047612;27;81031;-67
2021/08/13 13:20:38;;;;;;;23.33;8.13;;;57.40;11.10;;;;;;21052747;27;81009;-66
2021/08/13 13:30:47;;;;;;;22.73;7.03;;;56.20;11.30;;;;;;21051607;27;81224;-67
2021/08/13 13:40:48;;;;;;;34.83;8.98;;;55.40;11.10;;;;;;21052551;27;81224;-64
2021/08/13 13:50:51;;;;;;;22.90;9.57;;;57.10;10.70;;;;;;21051017;27;81252;-73
2021/08/13 14:00:52;;;;;;;26.55;9.77;;;56.40;10.80;;;;;;21049546;27;81073;-67
2021/08/13 14:10:55;;;;;;;26.77;8.83;;;55.50;10.90;;;;;;21051054;27;80688;-66
2021/08/13 14:20:56;;;;;;;25.20;8.65;;;56.70;10.50;;;;;;21058971;27;81644;-66
2021/08/13 14:30:58;;;;;;;29.27;9.53;;;58.00;10.40;;;;;;21063990;27;81459;-69
2021/08/13 14:40:59;;;;;;;36.97;11.13;;;59.30;10.00;;;;;;21063790;27;80764;-70
2021/08/13 14:51:01;;;;;;;29.20;12.50;;;59.20;10.20;;;;;;21049509;27;82536;-64
2021/08/13 15:01:02;;;;;;;20.70;10.15;;;59.60;10.00;;;;;;21048396;27;82682;-64
2021/08/13 15:11:04;;;;;;;28.73;8.93;;;55.60;11.00;;;;;;21050257;27;83489;-70
2021/08/13 15:21:07;;;;;;;20.37;8.07;;;51.60;11.80;;;;;;21061846;27;83141;-65
2021/08/13 15:31:08;;;;;;;32.17;9.85;;;48.60;12.60;;;;;;21059575;27;81856;-64
2021/08/13 15:41:10;;;;;;;24.77;8.10;;;46.80;13.50;;;;;;21057852;27;80173;-64
2021/08/13 15:51:11;;;;;;;20.10;6.85;;;45.90;13.70;;;;;;21060451;27;81230;-64
2021/08/13 16:01:14;;;;;;;26.15;8.38;;;45.70;13.50;;;;;;21113332;27;79860;-64
2021/08/13 16:11:15;;;;;;;24.23;6.97;;;45.40;13.60;;;;;;21145380;27;80549;-67
2021/08/13 16:21:17;;;;;;;23.30;7.22;;;47.90;12.90;;;;;;21124045;27;81076;-66
2021/08/13 16:31:19;;;;;;;29.52;6.53;;;47.10;13.00;;;;;;21142759;27;80604;-70
2021/08/13 16:41:20;;;;;;;22.45;6.15;;;46.20;13.00;;;;;;21122494;27;80695;-67
2021/08/13 16:51:22;;;;;;;30.42;7.90;;;44.70;13.60;;;;;;21140571;27;81134;-67
2021/08/13 17:01:24;;;;;;;32.55;6.18;;;44.00;13.80;;;;;;21121950;27;80021;-68
2021/08/13 17:11:28;;;;;;;20.75;7.20;;;45.50;13.30;;;;;;21142099;27;80138;-68
2021/08/13 17:21:29;;;;;;;24.02;6.53;;;44.70;13.50;;;;;;21121731;27;81883;-70
2021/08/13 17:31:31;;;;;;;24.60;7.30;;;43.20;14.00;;;;;;21137901;27;80746;-69
2021/08/13 17:41:33;;;;;;;28.52;6.72;;;42.50;14.50;;;;;;21119930;27;81850;-70
2021/08/13 17:51:35;;;;;;;30.70;7.43;;;42.00;15.40;;;;;;21121831;27;80726;-74
2021/08/13 18:01:37;;;;;;;22.42;5.70;;;42.60;14.70;;;;;;21133424;27;80748;-76
2021/08/13 18:11:39;;;;;;;19.13;6.13;;;42.10;14.80;;;;;;21150876;27;80874;-79
2021/08/13 18:21:40;;;;;;;25.90;5.28;;;41.70;15.20;;;;;;21149995;27;80626;-75
2021/08/13 18:31:42;;;;;;;30.17;6.50;;;40.70;15.90;;;;;;21149256;27;80983;-76
2021/08/13 18:41:46;;;;;;;23.70;5.97;;;40.20;16.30;;;;;;21130765;27;81977;-78
2021/08/13 18:51:48;;;;;;;21.40;5.10;;;39.70;16.90;;;;;;21148000;27;80674;-75
2021/08/13 19:01:50;;;;;;;24.05;6.57;;;39.20;17.20;;;;;;21126576;27;81126;-77
2021/08/13 19:11:52;;;;;;;35.60;7.55;;;38.50;17.70;;;;;;21146101;27;80653;-77
2021/08/13 19:21:55;;;;;;;31.77;7.78;;;38.00;18.70;;;;;;21128582;27;80651;-75
2021/08/13 19:31:56;;;;;;;24.27;6.43;;;37.60;19.40;;;;;;21128419;27;80731;-75
2021/08/13 19:41:58;;;;;;;32.53;7.72;;;37.20;20.10;;;;;;21128798;27;80810;-75
2021/08/13 19:52:00;;;;;;;24.15;7.50;;;36.80;20.00;;;;;;21127904;27;80736;-76
2021/08/13 20:02:02;;;;;;;34.55;7.18;;;36.60;20.40;;;;;;21145975;27;81274;-77
2021/08/13 20:12:05;;;;;;;25.35;6.97;;;36.40;20.60;;;;;;21144996;27;80907;-76
2021/08/13 20:22:06;;;;;;;22.50;7.47;;;36.00;21.50;;;;;;21141720;27;81672;-74
2021/08/13 20:32:08;;;;;;;30.38;8.23;;;35.90;21.70;;;;;;21123863;27;81317;-77
2021/08/13 20:42:11;;;;;;;26.52;7.72;;;35.70;22.40;;;;;;21141878;27;80426;-75
2021/08/13 20:52:12;;;;;;;33.03;8.68;;;35.50;23.10;;;;;;21139578;27;80839;-75
2021/08/13 21:02:14;;;;;;;27.08;8.15;;;35.30;23.80;;;;;;21122559;27;80895;-76
2021/08/13 21:12:16;;;;;;;29.65;9.40;;;35.00;24.50;;;;;;21140193;27;81398;-75
2021/08/13 21:22:18;;;;;;;26.70;8.43;;;34.90;25.30;;;;;;21119316;27;80181;-73
2021/08/13 21:32:20;;;;;;;23.70;8.98;;;34.60;26.50;;;;;;21130615;27;80488;-74
2021/08/13 21:42:22;;;;;;;21.13;8.15;;;34.40;26.50;;;;;;21133565;27;81180;-77
2021/08/13 21:52:25;;;;;;;22.63;7.47;;;34.20;26.60;;;;;;21134802;27;80875;-77
2021/08/13 22:02:29;;;;;;;23.48;7.55;;;33.90;26.70;;;;;;21134226;27;81586;-79
2021/08/13 22:12:31;;;;;;;24.13;8.32;;;33.80;27.00;;;;;;21133413;27;80071;-78
2021/08/13 22:22:32;;;;;;;26.65;8.32;;;33.60;27.00;;;;;;21133797;27;81785;-78
2021/08/13 22:32:35;;;;;;;24.65;7.90;;;33.70;27.00;;;;;;21150410;27;81013;-75
2021/08/13 22:42:37;;;;;;;29.38;10.65;;;33.50;27.80;;;;;;21129483;27;79963;-77
2021/08/13 22:52:38;;;;;;;27.63;9.00;;;33.30;27.20;;;;;;21137419;27;83030;-77
2021/08/13 23:02:40;;;;;;;42.17;8.30;;;33.40;25.90;;;;;;21148866;27;84584;-77
2021/08/13 23:12:42;;;;;;;25.38;7.72;;;33.30;26.70;;;;;;21131517;27;80716;-77
2021/08/13 23:22:44;;;;;;;32.33;8.73;;;33.10;27.50;;;;;;21129098;27;80592;-75
2021/08/13 23:32:45;;;;;;;27.50;8.23;;;32.90;28.10;;;;;;21146017;27;79963;-76
2021/08/13 23:42:47;;;;;;;26.58;9.30;;;32.60;28.70;;;;;;21144568;27;80574;-77
2021/08/13 23:52:49;;;;;;;23.17;7.75;;;32.40;29.70;;;;;;21144084;27;81190;-76
